下総飛行場

2016/11/01

下総航空基地開設57周年記念行事 下総飛行場 2016/10/29 sat

このブログとしては、初めてタグを作りました。もう、何年前になるのかわからない再訪問です。当時は、YSはもちろん、スターもいましたね。何スターだったっけなぁ?

METAR RJTL 282300Z VRB01KT 9999 FEW015 BKN080 15/14 Q1010 RMK 1CU015
5AC080 A2985=

20161029_rjtl_00mlin

8時を過ぎたのに、くらーい朝です。

20161029_rjtl_01m5063

丁度、天候偵察の離陸をゲット

20161029_rjtl_02m5063_2

5063 P-3C 203ATS

20161029_rjtl_03m5063

基地正門までの道すがら、上空を通過・・

20161029_rjtl_04bas

正門到着 開門は、9時

METAR RJTL 290000Z VRB01KT 9999 FEW015 SCT060 BKN080 16/13 Q1011 RMK
1CU015 3SC060 6AC080 A2987=

20161029_rjtl_05m6428

6428 SNB

まず、ゲートガードを一覧 だんだん記憶が蘇ってきます。

20161029_rjtl_06m6175

6175 SNJ

20161029_rjtl_07m6718

6718 B-65

20161029_rjtl_08m8607

8607 V107A

20161029_rjtl_09m203ats

航空隊前を通過して、エプロン地区へ

20161029_rjtl_10bik

下総名物のバイク艦隊

20161029_rjtl_11bik

DDGあとらすに赤い潜水艦も

20161029_rjtl_12ats205

ATS205のYS-11コーナーもあります

20161029_rjtl_13m9041

9041号機のコクピットが切り取られて保存されています

20161029_rjtl_14m5507

5507 P-1 VP-3

ようやくエプロンに・・

20161029_rjtl_15m5047

5047 P-3C ATS203

20161029_rjtl_16m9205

9205 U-36A VC-91

20161029_rjtl_17m6839

6839 TC-90 ATS202

20161029_rjtl_18jg41884

JG41884 UH-1J SU(NEH)

20161029_rjtl_19m8262

8262 SH-60J HS-21

20161029_rjtl_20jg52978

JG52978 CH-47JA HGPV

20161029_rjtl_21jg52978

なつかしやアカギフライト 小さく飛行隊名が入ってます

20161029_rjtl_22c851079

85-1079 C-130H 401SQ

20161029_rjtl_23c851079

例の人形も元気です

20161029_rjtl_24karu

こちらは第203整備補給隊

20161029_rjtl_25karu

いたるところで、かえる君がマスコットに使われています

20161029_rjtl_26karu

ぶじかえる

20161029_rjtl_27sl

さて、エプロンに戻って式典です

20161029_rjtl_28sl

でかい日の丸に自衛艦旗がすんばらしい

METAR RJTL 290100Z 13004KT 060V180 9999 FEW015 SCT070 18/13 Q1011
RMK 1CU015 4AC070 A2986=

20161029_rjtl_29sl

生歌で君が代斉唱

20161029_rjtl_30mp3x3

時間にあわせて、3機の航過

20161029_rjtl_31mp3

20161029_rjtl_32mp3x3

マーク!

20161029_rjtl_33mp3x3

この後、式典は延々と続くのであります。

20161029_rjtl_34mp3x3

3機がエシュロンで進入して・・

20161029_rjtl_35mp3x3

ブレイク

20161029_rjtl_36m5063

20161029_rjtl_37m5063

20161029_rjtl_38m5063

5063 P-3C ATS203

小さく残っていた尾翼のマークも無くなり、翼端の警戒色も消えてます。

20161029_rjtl_39m5066

新しい景色として、スカイツリーが望めます。

20161029_rjtl_40m5051

最後の機体が着陸して・・・

20161029_rjtl_41m5063

威風堂々のスポットイン

20161029_rjtl_42m5063

5063 P-3C ATS203

20161029_rjtl_43m5066

5066

20161029_rjtl_44m5051

5051

20161029_rjtl_45m5065

5065 最後にカメラシップ

20161029_rjtl_46m5065

20161029_rjtl_47m5065

これでフライトは終了です。

20161029_rjtl_48towr

外に非常階段のある珍しいタワーです

20161029_rjtl_50shimo

なんか海自の厳しさを感じる歓迎マーク

METAR RJTL 290300Z 09007KT 050V120 9999 FEW015 BKN070 20/12 Q1011
RMK 1CU015 6AC070 A2988

20161029_rjtl_51atlas

午後からは、バイク艦隊の展示

20161029_rjtl_52sub

潜水艦のスクリューが廻れば言うこと梨

20161029_rjtl_53p3c

街中を走ってみたいですな

20161029_rjtl_54p3c

見事にそろったトレイル

20161029_rjtl_55p3c

デルタで堂々の走行

20161029_rjtl_56p3c

ターンも美しく・・

20161029_rjtl_57sub

潜んでいるサブマリーン

20161029_rjtl_58m5051

飛行場では、体験搭乗が始まっています。応募するの忘れとった。

20161029_rjtl_59mk4

一番の役者は、MK-44魚雷くん

20161029_rjtl_60sub

命中!!

20161029_rjtl_61sub

状況終了して・・

20161029_rjtl_62sub

仲良く隊列行進

20161029_rjtl_63m5066

体験搭乗は、エプロンの4機が2機2機の編隊で実施

20161029_rjtl_64m5051

20161029_rjtl_65m5063

5063

20161029_rjtl_66m5066

5066

20161029_rjtl_67m5065

乗客乗せ変えは、左側エンジンのみを止めて誘導路上で・・

20161029_rjtl_68m5051

ああー、あのタラップ昇りたい

20161029_rjtl_69m5065

乗せ変えが終わると、すかさず出発します

20161029_rjtl_70m5066

5066

20161029_rjtl_71m5056

基地北側には用廃になった5029号機

METAR RJTL 290500Z 09007KT 060V130 9999 FEW015 BKN070 20/13 Q1013
RMK 1CU015 7AC070 A2992=

20161029_rjtl_72m5051

5051 コースは、空港北側から東に向かってぐるっと右回りで、北西方向から帰ってきます

20161029_rjtl_73m5063

3回目のA編隊が帰ってくるころに、エプロン追い出し・・

20161029_rjtl_74jg41884

陸自へりは人力で移動

20161029_rjtl_75m5065

B編隊が帰ってきて、これにて終了です。

20161029_rjtl_76m5051

5051

20161029_rjtl_77m065

5065

20161029_rjtl_78jg1884

JG41884 UH-1J SU(NEH) H884

20161029_rjtl_79jg52978

JG52978 CH-47JA HGPV C978

20161029_rjtl_80m9205

キューピーちゃんも、帰投です

20161029_rjtl_81m8262

館山のSHも・・ 

20161029_rjtl_82jg52978

チヌタンがローパスしてくれました

20161029_rjtl_83c851079

85-1079 C-130H 401SQ C79

20161029_rjtl_84m8262

8262 SH-60J HS-21 BJ62

METAR RJTL 290600Z 10004KT 060V150 9999 FEW015 SCT045 BKN070 19/12
Q1014 RMK 1CU015 4SC045 7AC070 A2996=

20161029_rjtl_85m9205

20161029_rjtl_86m5507

大御所が最後

20161029_rjtl_87m9205

20161029_rjtl_88m9205

9205 U-35A VC-91 Q05

20161029_rjtl_89m5507

もたつきましたが、ようやくタクシーアウト

20161029_rjtl_90m5507

海自はみんな手を振って見送ります

20161029_rjtl_91m5507

20161029_rjtl_92m5507

5507 P-1 VP-3 SE507

20161029_rjtl_93m5507

翼をフリフリ さようなら

20161029_rjtl_94flag

これにて、離脱てす。


| | コメント (0) | トラックバック (0)

2005/07/28

NA SHIMOFUSA TACAN

20050529_RJTL_SHTSHIMOFUSA TACAN -T SHT CH 19 N35°48.12' E140°00.60' At SHIMOFUSA(RJTL) Fld.

| | コメント (0)

GO! NAVY

20050529_RJTL_50472005059_RJTL_690620050529_rjtl3  今年は、各地で催される海上自衛隊の訓練展示乗艦での出撃が多くなっている。今日もこれから青森県八戸港へ大湊地方隊展示に出発です。おかげで、そらへの出撃がおろそかに・・ だれか落下傘で運んでくれないかなぁ

海上自衛隊下総基地 2005/5/29  RJTL  P3C:203-5047  YS11T:205-6906

| | コメント (0) | トラックバック (0)

その他のカテゴリー

BI Boading record aircraft Boading record ship FlightTracking lighthouse NAVAIDS RJNT LOG SKY MASSAGE US NAVY USMC うみ おか そら てつ アクシデント エアロック チーム室屋 三沢飛行場 上五島空港 下地島空港 下総飛行場 与那国空港 中標津空港 中部国際空港 久米島空港 五島福江空港 仙台空港 伊江島空港 但馬空港 佐賀空港 入間飛行場 八尾空港 八戸飛行場 出雲空港 函館空港 利尻空港 北九州空港 十勝飛行場 千歳飛行場 博物館 厚木飛行場 名古屋飛行場 喜界空港 嘉手納飛行場 場外 壱岐空港 大分空港 大湊飛行場 大阪国際空港 大館能代空港 天草空港 奄美空港 奥尻空港 宇部山口空港 宇都宮飛行場 宮古空港 宮崎空港 富山空港 小松島飛行場 小松飛行場 屋久島空港 山形空港 岐阜飛行場 岡山空港 岩国飛行場 帯広空港 広島空港 庄内空港 徳之島空港 徳島飛行場 成田国際空港 新潟空港 新田原飛行場 旭川空港 旭川飛行場 明野飛行場 普天間飛行場 木更津飛行場 札幌飛行場 東京国際空港 松山空港 松島飛行場 松本空港 横田飛行場 沖永良部空港 波照間空港 浜松飛行場 海上保安庁 海上自衛隊 海外 熊本空港 百里飛行場 相馬原飛行場 石垣空港 石見空港 礼文空港 神戸空港 福井空港 福岡空港 福島空港 秋田空港 種子島空港 空撮 立川飛行場 築城飛行場 美保飛行場 能登空港 舞鶴飛行場 航空自衛隊 芦屋飛行場 花巻空港 調布飛行場 警務消防 那覇空港 釧路空港 長崎空港 関西国際空港 陸上自衛隊 隠岐空港 霞ヶ浦飛行場 霞目飛行場 青森空港 静岡空港 静浜飛行場 飛行場跡 飛行船 鹿児島空港 鹿屋飛行場